Bungo Princess — 3FXV8 — position and weather

sailwx.info

Track history (hours):
 
Tides and Currents Weather Stations Pressure Air Temp Water Temp Dewpoint Dewpoint Depression Visibility Wind Speed Wind Dir Waves Ship Positions

Bungo Princess

Last reported at 2018-Apr-20 08:26 UTC. Time now 2018-Apr-20 08:51 UTC.
Position N 35°24' E 139°50'.

Length 103 m; draft 6.3 m.

Type: Cargo ship. MMSI: 355074054.

Date/timePositionNaut miles runAvg speedWind from/ knotsBaromVisibWave heightAir tempDewpointWater temp
2018-Apr-20 08:26N 35°24' E 139°50'0 0.0
2018-Apr-20 07:59N 35°24' E 139°50'0 0.2
2018-Apr-20 07:29N 35°24' E 139°50'0 0.1
2018-Apr-20 06:59N 35°24' E 139°50'0 0.0
2018-Apr-20 06:29N 35°24' E 139°50'0 0.1
2018-Apr-20 05:59N 35°24' E 139°50'0 0.1
2018-Apr-20 05:29N 35°24' E 139°50'0 0.0
2018-Apr-20 04:59N 35°24' E 139°50'0 0.0
2018-Apr-20 04:29N 35°24' E 139°50'0 0.0
2018-Apr-20 03:59N 35°24' E 139°50'0 0.0
2018-Apr-20 03:29N 35°24' E 139°50'0 0.0
2018-Apr-20 02:59N 35°24' E 139°50'0 0.0
2018-Apr-20 02:29N 35°24' E 139°50'0 0.0
2018-Apr-20 01:50N 35°24' E 139°50'0 0.0
2018-Apr-20 01:26N 35°24' E 139°50'0 0.0
2018-Apr-20 00:59N 35°24' E 139°50'0 0.0
2018-Apr-20 00:29N 35°24' E 139°50'0 0.1
2018-Apr-19 23:59N 35°24' E 139°50'1 2.7
2018-Apr-19 23:31N 35°25' E 139°48'5 9.7
2018-Apr-19 23:00N 35°21' E 139°45'5 9.9
2018-Apr-19 22:31N 35°16' E 139°46'611.8
2018-Apr-19 22:00N 35°10' E 139°46'612.5
2018-Apr-19 21:30N 35°04' E 139°44'713.2
2018-Apr-19 21:00N 34°58' E 139°40'612.7
2018-Apr-19 20:30N 34°52' E 139°44'611.0
2018-Apr-19 19:59N 34°50' E 139°50'712.1
2018-Apr-19 19:24N 34°50' E 139°59'611.8
2018-Apr-19 18:54N 34°53' E 140°06'512.0
2018-Apr-19 18:30N 34°55' E 140°10'611.4
2018-Apr-19 17:58N 34°59' E 140°17'511.3
2018-Apr-19 17:30N 35°01' E 140°22'  
2018-Apr-14 04:58N 35°03' E 140°23'715.6
2018-Apr-14 04:30N 34°58' E 140°16'1015.6
2018-Apr-14 03:53N 34°53' E 140°06'1414.9
2018-Apr-14 02:58N 34°46' E 139°52'1413.7
2018-Apr-14 01:56N 34°41' E 139°36'613.9
2018-Apr-14 01:30N 34°38' E 139°29'713.9
2018-Apr-14 01:00N 34°36' E 139°21'714.3
2018-Apr-14 00:30N 34°34' E 139°13'714.1
2018-Apr-14 00:00N 34°31' E 139°05'713.9
2018-Apr-13 23:30N 34°28' E 138°57'813.6
2018-Apr-13 22:56N 34°25' E 138°48'613.4
2018-Apr-13 22:28N 34°22' E 138°42'713.9
2018-Apr-13 22:00N 34°19' E 138°35'814.3
2018-Apr-13 21:29N 34°16' E 138°27'813.8
2018-Apr-13 20:53N 34°13' E 138°18'25511.5
2018-Apr-12 22:42N 32°50' E 133°28'7611.1
2018-Apr-12 15:51N 33°14' E 132°02'514.6
2018-Apr-12 15:30N 33°19' E 131°59'713.9
2018-Apr-12 15:00N 33°25' E 131°55'714.1
2018-Apr-12 14:29N 33°31' E 131°51'714.4
2018-Apr-12 14:00N 33°38' E 131°47'714.1
2018-Apr-12 13:30N 33°44' E 131°43'713.0
2018-Apr-12 13:00N 33°47' E 131°36'713.7
2018-Apr-12 12:30N 33°48' E 131°28'713.7
2018-Apr-12 12:00N 33°50' E 131°20'713.4
2018-Apr-12 11:30N 33°51' E 131°12'713.2
2018-Apr-12 11:00N 33°55' E 131°06'612.2
2018-Apr-12 10:30N 33°59' E 131°00'5 9.1
2018-Apr-12 10:00N 33°55' E 130°56'4 7.4
2018-Apr-12 09:30N 33°57' E 130°52'4 8.5
2018-Apr-12 09:00N 34°01' E 130°50'612.2
2018-Apr-12 08:30N 34°03' E 130°44'613.0
2018-Apr-12 08:00N 34°02' E 130°36'612.2
2018-Apr-12 07:30N 34°02' E 130°28'612.7
2018-Apr-12 07:00N 34°01' E 130°21'612.8
2018-Apr-12 06:30N 33°59' E 130°13'612.9
2018-Apr-12 06:00N 33°58' E 130°06'612.9
2018-Apr-12 05:31N 33°58' E 129°58'612.9
2018-Apr-12 05:00N 33°57' E 129°50'612.9
2018-Apr-12 04:30N 33°57' E 129°42'813.1
2018-Apr-12 03:55N 33°53' E 129°34'513.0
2018-Apr-12 03:30N 33°50' E 129°29'713.2
2018-Apr-12 03:00N 33°47' E 129°21'713.2
2018-Apr-12 02:29N 33°44' E 129°14'38512.2
2018-Apr-10 18:50N 31°01' E 122°21'511.9
2018-Apr-10 18:25N 31°02' E 122°15'5 9.9
2018-Apr-10 17:56N 31°03' E 122°10'3611.9
2018-Apr-10 14:55N 31°23' E 121°35'  
Track history (hours):
 
Tides and Currents Weather Stations Pressure Air Temp Water Temp Dewpoint Dewpoint Depression Visibility Wind Speed Wind Dir Waves Ship Positions

Bungo Princess

Last reported at 2018-Apr-20 08:26 UTC. Time now 2018-Apr-20 08:51 UTC.
Position N 35°24' E 139°50'.

Length 103 m; draft 6.3 m.

Type: Cargo ship. MMSI: 355074054.

Date/timePositionNaut miles runAvg speedWind from/ knotsBaromVisibWave heightAir tempDewpointWater temp
2018-Apr-20 08:26N 35°24' E 139°50'0 0.0
2018-Apr-20 07:59N 35°24' E 139°50'0 0.2
2018-Apr-20 07:29N 35°24' E 139°50'0 0.1
2018-Apr-20 06:59N 35°24' E 139°50'0 0.0
2018-Apr-20 06:29N 35°24' E 139°50'0 0.1
2018-Apr-20 05:59N 35°24' E 139°50'0 0.1
2018-Apr-20 05:29N 35°24' E 139°50'0 0.0
2018-Apr-20 04:59N 35°24' E 139°50'0 0.0
2018-Apr-20 04:29N 35°24' E 139°50'0 0.0
2018-Apr-20 03:59N 35°24' E 139°50'0 0.0
2018-Apr-20 03:29N 35°24' E 139°50'0 0.0
2018-Apr-20 02:59N 35°24' E 139°50'0 0.0
2018-Apr-20 02:29N 35°24' E 139°50'0 0.0
2018-Apr-20 01:50N 35°24' E 139°50'0 0.0
2018-Apr-20 01:26N 35°24' E 139°50'0 0.0
2018-Apr-20 00:59N 35°24' E 139°50'0 0.0
2018-Apr-20 00:29N 35°24' E 139°50'0 0.1
2018-Apr-19 23:59N 35°24' E 139°50'1 2.7
2018-Apr-19 23:31N 35°25' E 139°48'5 9.7
2018-Apr-19 23:00N 35°21' E 139°45'5 9.9
2018-Apr-19 22:31N 35°16' E 139°46'611.8
2018-Apr-19 22:00N 35°10' E 139°46'612.5
2018-Apr-19 21:30N 35°04' E 139°44'713.2
2018-Apr-19 21:00N 34°58' E 139°40'612.7
2018-Apr-19 20:30N 34°52' E 139°44'611.0
2018-Apr-19 19:59N 34°50' E 139°50'712.1
2018-Apr-19 19:24N 34°50' E 139°59'611.8
2018-Apr-19 18:54N 34°53' E 140°06'512.0
2018-Apr-19 18:30N 34°55' E 140°10'611.4
2018-Apr-19 17:58N 34°59' E 140°17'511.3
2018-Apr-19 17:30N 35°01' E 140°22'  
2018-Apr-14 04:58N 35°03' E 140°23'715.6
2018-Apr-14 04:30N 34°58' E 140°16'1015.6
2018-Apr-14 03:53N 34°53' E 140°06'1414.9
2018-Apr-14 02:58N 34°46' E 139°52'1413.7
2018-Apr-14 01:56N 34°41' E 139°36'613.9
2018-Apr-14 01:30N 34°38' E 139°29'713.9
2018-Apr-14 01:00N 34°36' E 139°21'714.3
2018-Apr-14 00:30N 34°34' E 139°13'714.1
2018-Apr-14 00:00N 34°31' E 139°05'713.9
2018-Apr-13 23:30N 34°28' E 138°57'813.6
2018-Apr-13 22:56N 34°25' E 138°48'613.4
2018-Apr-13 22:28N 34°22' E 138°42'713.9
2018-Apr-13 22:00N 34°19' E 138°35'814.3
2018-Apr-13 21:29N 34°16' E 138°27'813.8
2018-Apr-13 20:53N 34°13' E 138°18'25511.5
2018-Apr-12 22:42N 32°50' E 133°28'7611.1
2018-Apr-12 15:51N 33°14' E 132°02'514.6
2018-Apr-12 15:30N 33°19' E 131°59'713.9
2018-Apr-12 15:00N 33°25' E 131°55'714.1
2018-Apr-12 14:29N 33°31' E 131°51'714.4
2018-Apr-12 14:00N 33°38' E 131°47'714.1
2018-Apr-12 13:30N 33°44' E 131°43'713.0
2018-Apr-12 13:00N 33°47' E 131°36'713.7
2018-Apr-12 12:30N 33°48' E 131°28'713.7
2018-Apr-12 12:00N 33°50' E 131°20'713.4
2018-Apr-12 11:30N 33°51' E 131°12'713.2
2018-Apr-12 11:00N 33°55' E 131°06'612.2
2018-Apr-12 10:30N 33°59' E 131°00'5 9.1
2018-Apr-12 10:00N 33°55' E 130°56'4 7.4
2018-Apr-12 09:30N 33°57' E 130°52'4 8.5
2018-Apr-12 09:00N 34°01' E 130°50'612.2
2018-Apr-12 08:30N 34°03' E 130°44'613.0
2018-Apr-12 08:00N 34°02' E 130°36'612.2
2018-Apr-12 07:30N 34°02' E 130°28'612.7
2018-Apr-12 07:00N 34°01' E 130°21'612.8
2018-Apr-12 06:30N 33°59' E 130°13'612.9
2018-Apr-12 06:00N 33°58' E 130°06'612.9
2018-Apr-12 05:31N 33°58' E 129°58'612.9
2018-Apr-12 05:00N 33°57' E 129°50'612.9
2018-Apr-12 04:30N 33°57' E 129°42'813.1
2018-Apr-12 03:55N 33°53' E 129°34'513.0
2018-Apr-12 03:30N 33°50' E 129°29'713.2
2018-Apr-12 03:00N 33°47' E 129°21'713.2
2018-Apr-12 02:29N 33°44' E 129°14'38512.2
2018-Apr-10 18:50N 31°01' E 122°21'511.9
2018-Apr-10 18:25N 31°02' E 122°15'5 9.9
2018-Apr-10 17:56N 31°03' E 122°10'3611.9
2018-Apr-10 14:55N 31°23' E 121°35'  

Dump ship's entire track history